sensor_id;sensor_type;location;lat;lon;timestamp;pressure;altitude;pressure_sealevel;temperature;humidity
25638;BME280;13496;51.040;13.680;2022-09-01T00:01:58;100304.19;;;21.72;47.78
25638;BME280;13496;51.040;13.680;2022-09-01T00:06:59;100312.75;;;21.74;47.86
25638;BME280;13496;51.040;13.680;2022-09-01T00:12:02;100308.63;;;21.65;47.75
25638;BME280;13496;51.040;13.680;2022-09-01T00:17:07;100314.38;;;21.75;47.59
25638;BME280;13496;51.040;13.680;2022-09-01T00:22:09;100313.94;;;21.72;47.40
25638;BME280;13496;51.040;13.680;2022-09-01T00:27:11;100311.34;;;21.79;47.53
25638;BME280;13496;51.040;13.680;2022-09-01T00:32:13;100315.16;;;21.69;47.30
25638;BME280;13496;51.040;13.680;2022-09-01T00:37:14;100311.41;;;21.57;47.55
25638;BME280;13496;51.040;13.680;2022-09-01T00:42:16;100300.03;;;21.57;47.21
25638;BME280;13496;51.040;13.680;2022-09-01T00:47:18;100310.28;;;21.38;47.54
25638;BME280;13496;51.040;13.680;2022-09-01T00:52:33;100305.69;;;21.47;47.45
25638;BME280;13496;51.040;13.680;2022-09-01T00:57:36;100301.88;;;21.56;47.33
25638;BME280;13496;51.040;13.680;2022-09-01T01:02:41;100299.66;;;21.60;47.54
25638;BME280;13496;51.040;13.680;2022-09-01T01:07:45;100293.72;;;21.51;47.41
25638;BME280;13496;51.040;13.680;2022-09-01T01:12:48;100302.25;;;21.25;47.56
25638;BME280;13496;51.040;13.680;2022-09-01T01:17:52;100296.91;;;21.40;47.37
25638;BME280;13496;51.040;13.680;2022-09-01T01:23:39;100297.38;;;21.22;47.60
25638;BME280;13496;51.040;13.680;2022-09-01T01:28:44;100292.94;;;21.29;47.84
25638;BME280;13496;51.040;13.680;2022-09-01T01:33:52;100301.47;;;21.31;47.42
25638;BME280;13496;51.040;13.680;2022-09-01T01:38:54;100299.41;;;21.26;48.26
25638;BME280;13496;51.040;13.680;2022-09-01T01:44:03;100301.03;;;21.27;47.54
25638;BME280;13496;51.040;13.680;2022-09-01T01:49:06;100298.44;;;21.06;48.10
25638;BME280;13496;51.040;13.680;2022-09-01T01:54:07;100303.03;;;21.19;47.86
25638;BME280;13496;51.040;13.680;2022-09-01T01:59:09;100298.31;;;21.14;47.82
25638;BME280;13496;51.040;13.680;2022-09-01T02:04:18;100301.06;;;21.06;48.13
25638;BME280;13496;51.040;13.680;2022-09-01T02:09:20;100306.47;;;20.91;48.11
25638;BME280;13496;51.040;13.680;2022-09-01T02:14:24;100299.72;;;21.10;48.18
25638;BME280;13496;51.040;13.680;2022-09-01T02:19:26;100312.31;;;21.15;47.72
25638;BME280;13496;51.040;13.680;2022-09-01T02:24:27;100298.34;;;21.21;47.61
25638;BME280;13496;51.040;13.680;2022-09-01T02:29:32;100300.97;;;21.14;47.78
25638;BME280;13496;51.040;13.680;2022-09-01T02:34:33;100296.97;;;21.25;47.31
25638;BME280;13496;51.040;13.680;2022-09-01T02:39:36;100292.94;;;21.01;47.62
25638;BME280;13496;51.040;13.680;2022-09-01T02:44:38;100291.88;;;20.95;47.95
25638;BME280;13496;51.040;13.680;2022-09-01T02:49:41;100286.59;;;20.95;47.96
25638;BME280;13496;51.040;13.680;2022-09-01T02:54:43;100279.34;;;21.04;47.74
25638;BME280;13496;51.040;13.680;2022-09-01T02:59:47;100271.81;;;21.01;47.51
25638;BME280;13496;51.040;13.680;2022-09-01T03:04:48;100270.63;;;21.03;48.46
25638;BME280;13496;51.040;13.680;2022-09-01T03:09:54;100280.41;;;21.10;47.51
25638;BME280;13496;51.040;13.680;2022-09-01T03:14:56;100277.75;;;21.10;47.68
25638;BME280;13496;51.040;13.680;2022-09-01T03:19:57;100274.38;;;21.16;47.45
25638;BME280;13496;51.040;13.680;2022-09-01T03:25:00;100285.44;;;21.05;47.77
25638;BME280;13496;51.040;13.680;2022-09-01T03:30:02;100281.63;;;21.07;47.50
25638;BME280;13496;51.040;13.680;2022-09-01T03:35:04;100283.25;;;21.08;47.55
25638;BME280;13496;51.040;13.680;2022-09-01T03:40:08;100286.63;;;21.02;47.82
25638;BME280;13496;51.040;13.680;2022-09-01T03:45:11;100285.72;;;20.88;48.07
25638;BME280;13496;51.040;13.680;2022-09-01T03:50:18;100288.59;;;20.93;47.93
25638;BME280;13496;51.040;13.680;2022-09-01T03:55:25;100290.88;;;20.96;47.64
25638;BME280;13496;51.040;13.680;2022-09-01T04:00:28;100286.72;;;20.87;48.02
25638;BME280;13496;51.040;13.680;2022-09-01T04:05:36;100292.00;;;20.87;48.19
25638;BME280;13496;51.040;13.680;2022-09-01T04:10:50;100286.53;;;20.89;48.00
25638;BME280;13496;51.040;13.680;2022-09-01T04:15:52;100293.13;;;20.78;48.05
25638;BME280;13496;51.040;13.680;2022-09-01T04:20:58;100290.06;;;20.96;47.69
25638;BME280;13496;51.040;13.680;2022-09-01T04:26:03;100285.25;;;21.06;47.91
25638;BME280;13496;51.040;13.680;2022-09-01T04:31:14;100279.56;;;21.02;47.92
25638;BME280;13496;51.040;13.680;2022-09-01T04:36:27;100286.63;;;21.02;47.85
25638;BME280;13496;51.040;13.680;2022-09-01T04:41:34;100290.78;;;21.11;47.58
25638;BME280;13496;51.040;13.680;2022-09-01T04:46:41;100287.50;;;21.09;47.53
25638;BME280;13496;51.040;13.680;2022-09-01T04:51:48;100294.88;;;21.14;47.49
25638;BME280;13496;51.040;13.680;2022-09-01T04:56:50;100289.78;;;20.91;47.97
25638;BME280;13496;51.040;13.680;2022-09-01T05:01:53;100294.81;;;20.64;48.26
25638;BME280;13496;51.040;13.680;2022-09-01T05:06:58;100296.94;;;20.54;48.56
25638;BME280;13496;51.040;13.680;2022-09-01T05:12:06;100299.50;;;20.62;48.21
25638;BME280;13496;51.040;13.680;2022-09-01T05:17:16;100296.53;;;20.72;48.18
25638;BME280;13496;51.040;13.680;2022-09-01T05:22:18;100311.91;;;20.68;48.42
25638;BME280;13496;51.040;13.680;2022-09-01T05:27:29;100301.50;;;20.82;48.12
25638;BME280;13496;51.040;13.680;2022-09-01T05:32:31;100306.56;;;20.83;47.83
25638;BME280;13496;51.040;13.680;2022-09-01T05:37:35;100314.97;;;20.72;48.55
25638;BME280;13496;51.040;13.680;2022-09-01T05:42:42;100316.94;;;20.85;47.88
25638;BME280;13496;51.040;13.680;2022-09-01T05:47:44;100313.06;;;20.81;48.14
25638;BME280;13496;51.040;13.680;2022-09-01T05:52:47;100309.16;;;20.76;48.21
25638;BME280;13496;51.040;13.680;2022-09-01T05:57:49;100305.16;;;20.81;48.17
25638;BME280;13496;51.040;13.680;2022-09-01T06:02:52;100320.59;;;20.62;48.28
25638;BME280;13496;51.040;13.680;2022-09-01T06:07:56;100318.44;;;20.72;48.72
25638;BME280;13496;51.040;13.680;2022-09-01T06:12:58;100313.94;;;20.66;48.47
25638;BME280;13496;51.040;13.680;2022-09-01T06:18:03;100316.50;;;20.45;48.52
25638;BME280;13496;51.040;13.680;2022-09-01T06:23:08;100328.72;;;20.31;48.80
25638;BME280;13496;51.040;13.680;2022-09-01T06:28:11;100315.75;;;20.15;48.36
25638;BME280;13496;51.040;13.680;2022-09-01T06:33:14;100313.19;;;20.36;48.59
25638;BME280;13496;51.040;13.680;2022-09-01T06:38:21;100319.88;;;20.53;47.99
25638;BME280;13496;51.040;13.680;2022-09-01T06:43:25;100331.97;;;20.48;47.89
25638;BME280;13496;51.040;13.680;2022-09-01T06:48:28;100323.88;;;20.49;48.02
25638;BME280;13496;51.040;13.680;2022-09-01T06:53:43;100327.69;;;20.62;48.14
25638;BME280;13496;51.040;13.680;2022-09-01T06:58:51;100332.38;;;20.66;47.89
25638;BME280;13496;51.040;13.680;2022-09-01T07:03:54;100341.28;;;20.65;48.21
25638;BME280;13496;51.040;13.680;2022-09-01T07:09:18;100327.22;;;20.58;48.22
25638;BME280;13496;51.040;13.680;2022-09-01T07:14:35;100341.03;;;20.60;48.19
25638;BME280;13496;51.040;13.680;2022-09-01T07:19:37;100342.94;;;20.66;47.77
25638;BME280;13496;51.040;13.680;2022-09-01T07:24:39;100345.94;;;20.63;47.81
25638;BME280;13496;51.040;13.680;2022-09-01T07:30:00;100341.47;;;20.64;48.00
25638;BME280;13496;51.040;13.680;2022-09-01T07:35:03;100344.81;;;20.72;47.77
25638;BME280;13496;51.040;13.680;2022-09-01T07:40:09;100342.44;;;20.77;47.65
25638;BME280;13496;51.040;13.680;2022-09-01T07:45:36;100342.69;;;20.83;47.46
25638;BME280;13496;51.040;13.680;2022-09-01T07:50:42;100343.00;;;20.73;47.71
25638;BME280;13496;51.040;13.680;2022-09-01T07:55:52;100347.06;;;20.75;47.51
25638;BME280;13496;51.040;13.680;2022-09-01T08:00:55;100349.63;;;20.69;48.07
25638;BME280;13496;51.040;13.680;2022-09-01T08:06:06;100353.53;;;20.37;48.23
25638;BME280;13496;51.040;13.680;2022-09-01T08:11:15;100348.78;;;20.47;48.14
25638;BME280;13496;51.040;13.680;2022-09-01T08:16:17;100350.53;;;20.76;47.64
25638;BME280;13496;51.040;13.680;2022-09-01T08:21:21;100354.41;;;20.59;47.98
25638;BME280;13496;51.040;13.680;2022-09-01T08:26:56;100355.88;;;20.83;47.79
25638;BME280;13496;51.040;13.680;2022-09-01T08:31:58;100354.75;;;20.92;47.63
25638;BME280;13496;51.040;13.680;2022-09-01T08:37:00;100358.44;;;20.97;47.75
25638;BME280;13496;51.040;13.680;2022-09-01T08:42:17;100357.00;;;20.73;47.80
25638;BME280;13496;51.040;13.680;2022-09-01T08:47:23;100360.78;;;21.07;47.18
25638;BME280;13496;51.040;13.680;2022-09-01T08:52:35;100357.34;;;21.13;47.27
25638;BME280;13496;51.040;13.680;2022-09-01T08:57:42;100354.09;;;21.11;47.50
25638;BME280;13496;51.040;13.680;2022-09-01T09:03:12;100360.25;;;21.18;47.08
25638;BME280;13496;51.040;13.680;2022-09-01T09:08:50;100359.75;;;21.08;47.47
25638;BME280;13496;51.040;13.680;2022-09-01T09:19:37;100355.22;;;21.23;47.48
25638;BME280;13496;51.040;13.680;2022-09-01T09:29:58;100366.22;;;21.27;47.45
25638;BME280;13496;51.040;13.680;2022-09-01T09:35:17;100354.25;;;21.31;47.43
25638;BME280;13496;51.040;13.680;2022-09-01T09:40:24;100348.69;;;21.41;47.32
25638;BME280;13496;51.040;13.680;2022-09-01T09:45:29;100352.72;;;21.37;47.45
25638;BME280;13496;51.040;13.680;2022-09-01T09:50:40;100357.09;;;21.30;47.51
25638;BME280;13496;51.040;13.680;2022-09-01T09:56:02;100350.38;;;21.48;47.15
25638;BME280;13496;51.040;13.680;2022-09-01T10:06:42;100357.22;;;21.43;46.76
25638;BME280;13496;51.040;13.680;2022-09-01T10:11:56;100352.28;;;21.33;46.47
25638;BME280;13496;51.040;13.680;2022-09-01T10:17:07;100351.34;;;21.41;46.70
25638;BME280;13496;51.040;13.680;2022-09-01T10:22:10;100353.78;;;21.42;46.43
25638;BME280;13496;51.040;13.680;2022-09-01T10:27:23;100338.63;;;21.51;46.31
25638;BME280;13496;51.040;13.680;2022-09-01T10:32:33;100336.63;;;21.60;46.40
25638;BME280;13496;51.040;13.680;2022-09-01T10:37:39;100341.53;;;21.63;46.55
25638;BME280;13496;51.040;13.680;2022-09-01T10:42:43;100339.47;;;21.58;46.20
25638;BME280;13496;51.040;13.680;2022-09-01T10:47:46;100336.84;;;21.58;45.64
25638;BME280;13496;51.040;13.680;2022-09-01T11:13:46;100321.75;;;21.87;44.89
25638;BME280;13496;51.040;13.680;2022-09-01T11:18:49;100317.31;;;21.94;44.53
25638;BME280;13496;51.040;13.680;2022-09-01T11:29:51;100303.34;;;22.07;44.00
25638;BME280;13496;51.040;13.680;2022-09-01T11:34:54;100308.22;;;22.03;43.01
25638;BME280;13496;51.040;13.680;2022-09-01T11:39:59;100298.63;;;22.02;43.69
25638;BME280;13496;51.040;13.680;2022-09-01T11:45:25;100297.22;;;22.06;43.52
25638;BME280;13496;51.040;13.680;2022-09-01T11:50:31;100304.38;;;22.12;42.62
25638;BME280;13496;51.040;13.680;2022-09-01T11:55:43;100305.97;;;22.00;42.10
25638;BME280;13496;51.040;13.680;2022-09-01T12:00:45;100299.88;;;21.99;41.89
25638;BME280;13496;51.040;13.680;2022-09-01T12:05:51;100301.09;;;22.04;42.42
25638;BME280;13496;51.040;13.680;2022-09-01T12:11:08;100289.50;;;22.05;42.62
25638;BME280;13496;51.040;13.680;2022-09-01T12:16:19;100305.56;;;22.03;42.86
25638;BME280;13496;51.040;13.680;2022-09-01T12:21:25;100300.28;;;22.03;43.32
25638;BME280;13496;51.040;13.680;2022-09-01T12:26:28;100307.41;;;22.09;43.58
25638;BME280;13496;51.040;13.680;2022-09-01T12:31:30;100291.38;;;22.11;43.13
25638;BME280;13496;51.040;13.680;2022-09-01T12:36:34;100286.53;;;22.14;43.04
25638;BME280;13496;51.040;13.680;2022-09-01T12:41:38;100284.50;;;22.16;42.80
25638;BME280;13496;51.040;13.680;2022-09-01T12:46:42;100287.13;;;22.16;43.00
25638;BME280;13496;51.040;13.680;2022-09-01T12:51:45;100287.38;;;22.21;43.02
25638;BME280;13496;51.040;13.680;2022-09-01T12:56:49;100293.50;;;22.29;42.85
25638;BME280;13496;51.040;13.680;2022-09-01T13:01:52;100282.94;;;22.29;42.43
25638;BME280;13496;51.040;13.680;2022-09-01T13:07:06;100274.78;;;22.30;41.90
25638;BME280;13496;51.040;13.680;2022-09-01T13:12:17;100273.78;;;22.38;41.28
25638;BME280;13496;51.040;13.680;2022-09-01T13:17:19;100264.22;;;22.37;40.78
25638;BME280;13496;51.040;13.680;2022-09-01T13:22:21;100253.25;;;22.40;40.34
25638;BME280;13496;51.040;13.680;2022-09-01T13:27:23;100261.59;;;22.50;40.92
25638;BME280;13496;51.040;13.680;2022-09-01T13:32:24;100252.44;;;22.53;40.93
25638;BME280;13496;51.040;13.680;2022-09-01T13:37:26;100246.34;;;22.52;40.57
25638;BME280;13496;51.040;13.680;2022-09-01T13:42:28;100252.88;;;22.56;40.36
25638;BME280;13496;51.040;13.680;2022-09-01T13:47:29;100249.41;;;22.62;40.24
25638;BME280;13496;51.040;13.680;2022-09-01T13:52:31;100244.13;;;22.69;39.77
25638;BME280;13496;51.040;13.680;2022-09-01T13:57:33;100239.25;;;22.66;39.64
25638;BME280;13496;51.040;13.680;2022-09-01T14:02:38;100253.69;;;22.63;40.10
25638;BME280;13496;51.040;13.680;2022-09-01T14:07:40;100248.00;;;22.60;40.14
25638;BME280;13496;51.040;13.680;2022-09-01T14:12:42;100240.88;;;22.60;39.87
25638;BME280;13496;51.040;13.680;2022-09-01T14:17:51;100241.25;;;22.57;39.97
25638;BME280;13496;51.040;13.680;2022-09-01T14:22:53;100244.53;;;22.53;39.17
25638;BME280;13496;51.040;13.680;2022-09-01T14:27:56;100249.81;;;22.53;38.97
25638;BME280;13496;51.040;13.680;2022-09-01T14:32:59;100255.31;;;22.51;39.09
25638;BME280;13496;51.040;13.680;2022-09-01T14:38:01;100250.63;;;22.60;38.91
25638;BME280;13496;51.040;13.680;2022-09-01T14:43:07;100246.94;;;22.54;38.55
25638;BME280;13496;51.040;13.680;2022-09-01T14:48:14;100245.34;;;22.53;38.01
25638;BME280;13496;51.040;13.680;2022-09-01T14:53:16;100242.69;;;22.60;38.43
25638;BME280;13496;51.040;13.680;2022-09-01T14:58:19;100252.84;;;22.50;38.13
25638;BME280;13496;51.040;13.680;2022-09-01T15:03:24;100240.44;;;22.50;38.80
25638;BME280;13496;51.040;13.680;2022-09-01T15:08:26;100238.81;;;22.49;38.63
25638;BME280;13496;51.040;13.680;2022-09-01T15:13:28;100239.44;;;22.44;38.95
25638;BME280;13496;51.040;13.680;2022-09-01T15:18:31;100247.97;;;22.40;39.00
25638;BME280;13496;51.040;13.680;2022-09-01T15:23:34;100237.78;;;22.37;39.19
25638;BME280;13496;51.040;13.680;2022-09-01T15:28:35;100236.97;;;22.43;39.83
25638;BME280;13496;51.040;13.680;2022-09-01T15:33:38;100243.69;;;22.45;40.29
25638;BME280;13496;51.040;13.680;2022-09-01T15:38:40;100248.75;;;22.34;40.46
25638;BME280;13496;51.040;13.680;2022-09-01T15:43:41;100248.75;;;22.34;41.05
25638;BME280;13496;51.040;13.680;2022-09-01T15:48:43;100241.25;;;22.44;40.65
25638;BME280;13496;51.040;13.680;2022-09-01T15:53:45;100237.78;;;22.50;41.36
25638;BME280;13496;51.040;13.680;2022-09-01T15:58:48;100239.22;;;22.53;41.38
25638;BME280;13496;51.040;13.680;2022-09-01T16:03:50;100235.38;;;22.55;41.87
25638;BME280;13496;51.040;13.680;2022-09-01T16:08:52;100231.50;;;22.58;41.84
25638;BME280;13496;51.040;13.680;2022-09-01T16:13:54;100229.69;;;22.58;42.06
25638;BME280;13496;51.040;13.680;2022-09-01T16:24:13;100237.19;;;22.61;42.37
25638;BME280;13496;51.040;13.680;2022-09-01T16:29:25;100236.19;;;22.62;42.52
25638;BME280;13496;51.040;13.680;2022-09-01T16:34:30;100236.78;;;22.64;42.75
25638;BME280;13496;51.040;13.680;2022-09-01T16:39:45;100241.06;;;22.65;42.79
25638;BME280;13496;51.040;13.680;2022-09-01T16:44:53;100235.59;;;22.67;42.96
25638;BME280;13496;51.040;13.680;2022-09-01T17:01:16;100252.88;;;22.69;43.48
25638;BME280;13496;51.040;13.680;2022-09-01T17:06:29;100245.13;;;22.68;43.47
25638;BME280;13496;51.040;13.680;2022-09-01T17:11:50;100249.41;;;22.69;43.72
25638;BME280;13496;51.040;13.680;2022-09-01T17:17:01;100244.94;;;22.69;43.81
25638;BME280;13496;51.040;13.680;2022-09-01T17:22:13;100241.47;;;22.69;44.04
25638;BME280;13496;51.040;13.680;2022-09-01T17:27:39;100255.31;;;22.71;44.06
25638;BME280;13496;51.040;13.680;2022-09-01T17:33:15;100258.78;;;22.71;44.05
25638;BME280;13496;51.040;13.680;2022-09-01T17:38:30;100254.50;;;22.70;44.29
25638;BME280;13496;51.040;13.680;2022-09-01T17:49:06;100265.09;;;22.70;44.56
25638;BME280;13496;51.040;13.680;2022-09-01T18:04:57;100273.63;;;22.73;44.90
25638;BME280;13496;51.040;13.680;2022-09-01T18:10:03;100272.22;;;22.70;44.82
25638;BME280;13496;51.040;13.680;2022-09-01T18:15:23;100274.66;;;22.71;44.94
25638;BME280;13496;51.040;13.680;2022-09-01T18:20:28;100274.66;;;22.71;45.20
25638;BME280;13496;51.040;13.680;2022-09-01T18:31:15;100283.41;;;22.72;45.13
25638;BME280;13496;51.040;13.680;2022-09-01T18:47:00;100288.91;;;22.70;45.25
25638;BME280;13496;51.040;13.680;2022-09-01T18:52:19;100287.88;;;22.71;45.70
25638;BME280;13496;51.040;13.680;2022-09-01T18:57:32;100292.13;;;22.73;45.53
25638;BME280;13496;51.040;13.680;2022-09-01T19:07:52;100287.88;;;22.71;45.62
25638;BME280;13496;51.040;13.680;2022-09-01T19:23:43;100287.06;;;22.71;45.62
25638;BME280;13496;51.040;13.680;2022-09-01T19:28:51;100293.16;;;22.71;45.78
25638;BME280;13496;51.040;13.680;2022-09-01T19:34:03;100288.91;;;22.70;45.63
25638;BME280;13496;51.040;13.680;2022-09-01T19:39:18;100283.59;;;22.70;45.81
25638;BME280;13496;51.040;13.680;2022-09-01T19:50:09;100295.22;;;22.69;45.88
25638;BME280;13496;51.040;13.680;2022-09-01T19:55:24;100290.09;;;22.68;45.97
25638;BME280;13496;51.040;13.680;2022-09-01T20:00:43;100298.84;;;22.68;45.99
25638;BME280;13496;51.040;13.680;2022-09-01T20:06:10;100295.63;;;22.66;45.99
25638;BME280;13496;51.040;13.680;2022-09-01T20:11:34;100299.88;;;22.67;46.05
25638;BME280;13496;51.040;13.680;2022-09-01T20:16:43;100294.59;;;22.67;46.01
25638;BME280;13496;51.040;13.680;2022-09-01T20:21:46;100303.53;;;22.66;46.14
25638;BME280;13496;51.040;13.680;2022-09-01T20:27:23;100297.44;;;22.66;46.36
25638;BME280;13496;51.040;13.680;2022-09-01T20:43:50;100304.53;;;22.65;46.22
25638;BME280;13496;51.040;13.680;2022-09-01T20:48:55;100302.91;;;22.64;46.43
25638;BME280;13496;51.040;13.680;2022-09-01T20:59:09;100299.47;;;22.64;46.22
25638;BME280;13496;51.040;13.680;2022-09-01T21:09:44;100304.97;;;22.62;46.31
25638;BME280;13496;51.040;13.680;2022-09-01T21:20:02;100305.16;;;22.61;46.42
25638;BME280;13496;51.040;13.680;2022-09-01T21:25:08;100312.28;;;22.60;46.28
25638;BME280;13496;51.040;13.680;2022-09-01T21:30:12;100306.97;;;22.60;46.57
25638;BME280;13496;51.040;13.680;2022-09-01T21:35:17;100305.38;;;22.59;46.63
25638;BME280;13496;51.040;13.680;2022-09-01T21:40:21;100306.19;;;22.60;46.34
25638;BME280;13496;51.040;13.680;2022-09-01T21:45:24;100302.09;;;22.57;46.48
25638;BME280;13496;51.040;13.680;2022-09-01T21:50:26;100299.44;;;22.57;46.39
25638;BME280;13496;51.040;13.680;2022-09-01T21:55:29;100293.56;;;22.55;46.74
25638;BME280;13496;51.040;13.680;2022-09-01T22:00:34;100292.75;;;22.55;46.53
25638;BME280;13496;51.040;13.680;2022-09-01T22:05:41;100293.75;;;22.54;46.40
25638;BME280;13496;51.040;13.680;2022-09-01T22:10:46;100292.13;;;22.53;46.57
25638;BME280;13496;51.040;13.680;2022-09-01T22:15:52;100292.34;;;22.51;46.52
25638;BME280;13496;51.040;13.680;2022-09-01T22:21:06;100291.31;;;22.52;46.65
25638;BME280;13496;51.040;13.680;2022-09-01T22:26:09;100294.13;;;22.51;46.67
25638;BME280;13496;51.040;13.680;2022-09-01T22:31:18;100286.22;;;22.51;46.71
25638;BME280;13496;51.040;13.680;2022-09-01T22:36:26;100286.41;;;22.49;46.54
25638;BME280;13496;51.040;13.680;2022-09-01T22:41:30;100286.41;;;22.49;46.58
25638;BME280;13496;51.040;13.680;2022-09-01T22:46:34;100289.28;;;22.48;46.83
25638;BME280;13496;51.040;13.680;2022-09-01T22:51:40;100283.34;;;22.45;46.85
25638;BME280;13496;51.040;13.680;2022-09-01T22:56:42;100287.84;;;22.45;46.70
25638;BME280;13496;51.040;13.680;2022-09-01T23:01:46;100288.06;;;22.43;46.62
25638;BME280;13496;51.040;13.680;2022-09-01T23:06:50;100287.22;;;22.43;46.78
25638;BME280;13496;51.040;13.680;2022-09-01T23:11:52;100281.91;;;22.43;46.68
25638;BME280;13496;51.040;13.680;2022-09-01T23:16:54;100283.97;;;22.41;46.84
25638;BME280;13496;51.040;13.680;2022-09-01T23:21:56;100281.31;;;22.41;46.78
25638;BME280;13496;51.040;13.680;2022-09-01T23:26:58;100277.88;;;22.40;46.88
25638;BME280;13496;51.040;13.680;2022-09-01T23:31:59;100270.13;;;22.39;46.78
25638;BME280;13496;51.040;13.680;2022-09-01T23:37:01;100278.88;;;22.39;46.59
25638;BME280;13496;51.040;13.680;2022-09-01T23:42:03;100279.06;;;22.38;46.76
25638;BME280;13496;51.040;13.680;2022-09-01T23:47:05;100276.44;;;22.38;46.81
25638;BME280;13496;51.040;13.680;2022-09-01T23:52:06;100275.81;;;22.36;46.98
25638;BME280;13496;51.040;13.680;2022-09-01T23:57:08;100272.34;;;22.35;46.90
